Time;durP1;ratioP1;P1;durP2;ratioP2;P2;SDS_P1;SDS_P2;PMS_P1;PMS_P2;Temp;Humidity;BMP_temperature;BMP_pressure;BME280_temperature;BME280_humidity;BME280_pressure;Samples;Min_cycle;Max_cycle;Signal;HPM_P1;HPM_P2
2022/01/27 00:03:30;;;;;;;48.17;30.38;;;;;;;2.51;100.00;102650.97;5033736;28;20079;-70
2022/01/27 00:06:00;;;;;;;50.28;31.13;;;;;;;2.56;100.00;102651.28;5028262;28;20500;-73
2022/01/27 00:08:36;;;;;;;52.47;33.55;;;;;;;2.52;100.00;102646.66;5033338;28;20451;-73
2022/01/27 00:11:08;;;;;;;50.05;30.23;;;;;;;2.62;100.00;102646.44;5033060;28;20053;-74
2022/01/27 00:13:43;;;;;;;51.05;31.63;;;;;;;2.59;100.00;102641.97;5033172;28;20033;-73
2022/01/27 00:16:18;;;;;;;49.08;28.85;;;;;;;2.58;100.00;102627.09;5033400;28;20117;-70
2022/01/27 00:18:46;;;;;;;47.58;29.15;;;;;;;2.59;100.00;102601.88;5033378;28;20037;-70
2022/01/27 00:21:13;;;;;;;48.58;28.58;;;;;;;2.58;100.00;102600.97;5032999;28;20099;-71
2022/01/27 00:23:40;;;;;;;49.67;31.27;;;;;;;2.59;100.00;102608.00;5032886;28;20034;-70
2022/01/27 00:26:06;;;;;;;49.03;31.60;;;;;;;2.50;100.00;102602.16;5029437;28;20068;-72
2022/01/27 00:28:31;;;;;;;46.70;27.67;;;;;;;2.59;100.00;102596.66;5032920;28;20047;-70
2022/01/27 00:30:56;;;;;;;46.97;28.27;;;;;;;2.62;100.00;102607.28;5033096;28;20384;-72
2022/01/27 00:33:22;;;;;;;46.83;30.25;;;;;;;2.56;100.00;102617.34;5032821;28;20042;-75
2022/01/27 00:35:48;;;;;;;49.00;30.23;;;;;;;2.57;100.00;102609.59;5032804;28;20495;-73
2022/01/27 00:38:13;;;;;;;47.55;29.17;;;;;;;2.58;100.00;102623.59;5086284;28;20032;-74
2022/01/27 00:40:38;;;;;;;47.30;28.42;;;;;;;2.63;100.00;102603.88;5095361;28;20478;-73
2022/01/27 00:43:04;;;;;;;47.45;29.30;;;;;;;2.66;100.00;102609.28;5094958;28;20525;-72
2022/01/27 00:45:30;;;;;;;47.95;30.13;;;;;;;2.62;100.00;102612.50;5128014;27;20489;-75
2022/01/27 00:47:57;;;;;;;47.25;30.45;;;;;;;2.60;100.00;102603.69;5094832;28;20024;-74
2022/01/27 00:50:22;;;;;;;47.17;29.83;;;;;;;2.64;100.00;102590.03;5094709;28;20480;-73
2022/01/27 00:52:52;;;;;;;47.10;29.80;;;;;;;2.69;100.00;102585.09;5094743;28;20031;-73
2022/01/27 00:55:17;;;;;;;47.72;30.58;;;;;;;2.73;100.00;102585.38;5094825;28;20417;-73
2022/01/27 01:00:10;;;;;;;47.28;29.52;;;;;;;2.75;100.00;102578.56;5095108;28;20043;-70
2022/01/27 01:03:02;;;;;;;46.63;27.27;;;;;;;2.74;100.00;102587.19;5090635;28;20064;-72
2022/01/27 01:08:00;;;;;;;47.75;28.58;;;;;;;2.74;100.00;102571.53;5094632;28;20070;-74
2022/01/27 01:11:09;;;;;;;46.08;28.15;;;;;;;2.78;100.00;102573.53;5090672;28;20047;-74
2022/01/27 01:15:44;;;;;;;45.75;27.92;;;;;;;2.78;100.00;102568.31;5094772;28;20363;-73
2022/01/27 01:31:48;;;;;;;45.67;29.70;;;;;;;2.86;100.00;102557.44;5092147;28;20070;-73
2022/01/27 01:34:19;;;;;;;47.88;30.65;;;;;;;2.85;100.00;102545.19;5092489;28;20546;-71
2022/01/27 01:39:17;;;;;;;45.10;27.38;;;;;;;2.93;100.00;102543.97;5094135;28;20032;-69
2022/01/27 01:41:43;;;;;;;46.40;28.67;;;;;;;2.86;100.00;102541.78;5093720;28;20051;-69
2022/01/27 01:44:09;;;;;;;45.67;29.35;;;;;;;2.87;100.00;102530.50;5093889;28;20020;-69
2022/01/27 01:46:35;;;;;;;44.00;27.85;;;;;;;2.91;100.00;102522.03;5093620;28;20055;-75
2022/01/27 01:49:01;;;;;;;44.03;26.98;;;;;;;2.96;100.00;102507.56;5093796;28;20063;-75
2022/01/27 01:51:28;;;;;;;44.15;28.20;;;;;;;2.92;100.00;102513.41;5093878;28;20052;-75
2022/01/27 01:53:54;;;;;;;46.50;29.27;;;;;;;2.93;100.00;102525.69;5126449;27;20024;-75
2022/01/27 01:56:19;;;;;;;44.75;28.60;;;;;;;2.89;100.00;102523.69;5093572;28;20028;-75
2022/01/27 01:58:45;;;;;;;46.55;29.63;;;;;;;2.89;100.00;102528.91;5093697;28;20058;-76
2022/01/27 02:01:10;;;;;;;46.38;30.02;;;;;;;2.90;100.00;102521.16;5093499;28;20020;-76
2022/01/27 02:03:36;;;;;;;47.15;30.20;;;;;;;2.88;100.00;102521.84;5092753;28;20020;-75
2022/01/27 02:06:01;;;;;;;45.25;29.55;;;;;;;2.86;100.00;102534.81;5093430;28;20083;-75
2022/01/27 02:08:36;;;;;;;45.42;29.05;;;;;;;2.93;100.00;102507.38;5093281;28;20035;-75
2022/01/27 02:19:25;;;;;;;45.25;27.80;;;;;;;2.97;100.00;102467.56;5093147;28;20058;-76
2022/01/27 02:21:54;;;;;;;43.63;27.58;;;;;;;2.95;100.00;102477.03;5093277;28;20462;-76
2022/01/27 02:24:22;;;;;;;45.47;28.85;;;;;;;2.93;100.00;102468.19;5093362;28;20103;-75
2022/01/27 02:26:49;;;;;;;46.72;28.63;;;;;;;2.90;100.00;102473.25;5093042;28;20024;-74
2022/01/27 02:29:19;;;;;;;44.53;26.92;;;;;;;2.90;100.00;102474.13;5093060;28;20107;-75
2022/01/27 02:31:45;;;;;;;45.97;28.77;;;;;;;2.93;100.00;102483.88;5093032;28;20086;-75
2022/01/27 02:34:11;;;;;;;46.25;29.40;;;;;;;2.92;100.00;102488.19;5092849;28;20458;-69
2022/01/27 02:36:37;;;;;;;46.63;28.52;;;;;;;2.89;100.00;102482.75;5092751;28;20024;-74
2022/01/27 02:39:07;;;;;;;46.13;29.85;;;;;;;2.91;100.00;102480.25;5093044;28;20035;-74
2022/01/27 02:41:41;;;;;;;45.00;27.88;;;;;;;2.90;100.00;102478.47;5092786;28;20028;-69
2022/01/27 02:44:06;;;;;;;46.55;27.80;;;;;;;2.95;100.00;102461.34;5092636;28;20028;-70
2022/01/27 02:46:41;;;;;;;46.78;29.65;;;;;;;2.96;100.00;102465.78;5093150;28;20027;-69
2022/01/27 02:49:06;;;;;;;45.03;26.75;;;;;;;2.97;100.00;102459.72;5093032;28;20063;-70
2022/01/27 02:51:35;;;;;;;44.42;28.58;;;;;;;2.99;100.00;102452.00;5092771;28;20497;-72
2022/01/27 02:54:00;;;;;;;44.53;26.80;;;;;;;3.04;100.00;102467.13;5092581;28;20451;-73
2022/01/27 02:56:25;;;;;;;44.58;28.33;;;;;;;3.00;100.00;102457.31;5092839;28;20020;-70
2022/01/27 02:58:51;;;;;;;44.25;27.20;;;;;;;3.05;100.00;102445.41;5092603;28;20525;-70
2022/01/27 03:01:20;;;;;;;41.75;24.52;;;;;;;3.08;100.00;102429.03;5093041;28;20485;-70
2022/01/27 03:03:45;;;;;;;43.47;25.75;;;;;;;3.07;100.00;102429.81;5092605;28;20424;-72
2022/01/27 03:06:11;;;;;;;43.10;26.65;;;;;;;3.09;100.00;102412.56;5091235;28;20036;-74
2022/01/27 03:08:36;;;;;;;42.67;25.88;;;;;;;3.11;100.00;102409.19;5092838;28;20032;-73
2022/01/27 03:11:06;;;;;;;42.97;25.90;;;;;;;3.06;100.00;102415.88;5093073;28;20047;-70
2022/01/27 03:13:32;;;;;;;43.05;26.83;;;;;;;3.01;100.00;102425.13;5092330;28;20028;-69
2022/01/27 03:15:57;;;;;;;42.63;25.90;;;;;;;2.96;100.00;102430.09;5095192;28;20107;-69
2022/01/27 03:18:22;;;;;;;43.15;27.33;;;;;;;3.06;100.00;102428.00;5096792;28;20496;-70
2022/01/27 03:20:48;;;;;;;45.15;27.35;;;;;;;3.06;100.00;102413.25;5096448;28;20031;-71
2022/01/27 03:23:13;;;;;;;43.00;25.60;;;;;;;3.02;100.00;102415.59;5096582;28;20153;-73
2022/01/27 03:25:38;;;;;;;42.03;25.88;;;;;;;3.04;100.00;102409.63;5096532;28;20111;-72
2022/01/27 03:28:04;;;;;;;44.08;25.88;;;;;;;3.02;100.00;102405.16;5096684;28;20028;-74
2022/01/27 03:30:30;;;;;;;44.15;26.92;;;;;;;2.95;100.00;102393.41;5096640;28;20459;-74
2022/01/27 03:32:55;;;;;;;42.63;27.10;;;;;;;2.94;100.00;102389.91;5096144;28;20458;-75
2022/01/27 03:35:20;;;;;;;44.47;27.35;;;;;;;2.94;100.00;102389.91;5096311;28;20028;-76
2022/01/27 03:37:46;;;;;;;41.97;25.67;;;;;;;2.95;100.00;102391.69;5096689;28;20024;-74
2022/01/27 03:40:11;;;;;;;45.95;26.60;;;;;;;2.93;100.00;102389.81;5096211;28;20028;-75
2022/01/27 03:42:44;;;;;;;44.15;27.38;;;;;;;2.94;100.00;102402.06;5095982;28;20020;-74
2022/01/27 03:45:10;;;;;;;43.45;26.30;;;;;;;2.89;100.00;102403.50;5095312;28;20032;-75
2022/01/27 03:47:36;;;;;;;44.63;27.55;;;;;;;2.85;100.00;102417.19;5096169;28;20031;-75
2022/01/27 03:50:04;;;;;;;45.00;27.23;;;;;;;2.85;100.00;102397.19;5096253;28;20028;-75
2022/01/27 03:52:30;;;;;;;45.55;25.75;;;;;;;2.91;100.00;102401.88;5090769;28;20470;-74
2022/01/27 03:54:55;;;;;;;45.25;28.08;;;;;;;2.89;100.00;102395.66;5091222;28;20040;-75
2022/01/27 03:57:20;;;;;;;44.00;25.45;;;;;;;2.93;100.00;102393.31;5095851;28;20016;-75
2022/01/27 03:59:46;;;;;;;43.75;26.33;;;;;;;2.98;100.00;102388.38;5095806;28;20372;-74
2022/01/27 04:02:11;;;;;;;45.78;25.55;;;;;;;3.00;100.00;102389.38;5095696;28;20496;-75
2022/01/27 04:04:37;;;;;;;43.35;25.67;;;;;;;3.02;100.00;102364.22;5095567;28;20044;-74
2022/01/27 04:07:03;;;;;;;42.97;26.05;;;;;;;3.03;100.00;102371.28;5095899;28;20028;-74
2022/01/27 04:09:29;;;;;;;45.38;26.83;;;;;;;3.04;100.00;102370.44;5096046;28;20413;-75
2022/01/27 04:11:54;;;;;;;43.30;25.48;;;;;;;3.07;100.00;102362.81;5095560;28;20023;-75
2022/01/27 04:14:19;;;;;;;43.42;25.92;;;;;;;3.16;100.00;102351.06;5095683;28;20032;-73
2022/01/27 04:16:45;;;;;;;42.33;24.17;;;;;;;3.14;100.00;102337.91;5094145;28;20414;-70
2022/01/27 04:19:10;;;;;;;42.65;25.35;;;;;;;3.07;100.00;102346.22;5095900;28;20020;-73
2022/01/27 04:21:36;;;;;;;44.40;25.30;;;;;;;3.02;100.00;102347.66;5091572;28;20077;-72
2022/01/27 04:24:02;;;;;;;43.70;26.17;;;;;;;3.00;100.00;102358.03;5095451;28;20470;-74
2022/01/27 04:26:35;;;;;;;41.58;24.98;;;;;;;3.04;100.00;102341.69;5095131;28;20077;-70
2022/01/27 04:29:01;;;;;;;43.63;24.67;;;;;;;3.09;100.00;102357.66;5095811;28;20496;-72
2022/01/27 04:31:28;;;;;;;44.00;24.83;;;;;;;3.14;100.00;102338.81;5095096;28;20055;-75
2022/01/27 04:33:54;;;;;;;43.53;25.60;;;;;;;3.09;100.00;102347.22;5095393;28;20032;-75
2022/01/27 04:36:30;;;;;;;42.78;24.38;;;;;;;3.09;100.00;102340.28;5095424;28;20407;-76
2022/01/27 04:39:25;;;;;;;43.90;24.77;;;;;;;3.10;100.00;102328.09;5095433;28;20024;-76
2022/01/27 04:41:52;;;;;;;43.17;24.02;;;;;;;3.11;100.00;102312.50;5094373;28;20115;-75
2022/01/27 04:44:57;;;;;;;43.30;26.27;;;;;;;3.07;100.00;102325.31;5095168;28;20237;-76
2022/01/27 04:47:15;;;;;;;44.28;25.48;;;;;;;3.02;100.00;102324.16;5090823;28;20031;-76
2022/01/27 04:49:41;;;;;;;45.28;25.70;;;;;;;3.04;100.00;102318.19;5091376;28;20157;-75
2022/01/27 04:52:07;;;;;;;44.38;24.65;;;;;;;2.96;100.00;102327.31;5094991;28;20538;-76
2022/01/27 04:54:40;;;;;;;43.47;24.40;;;;;;;2.97;100.00;102322.16;5094407;28;20111;-76
2022/01/27 04:57:06;;;;;;;43.75;25.60;;;;;;;3.03;100.00;102326.84;5094959;28;20035;-76
2022/01/27 04:59:37;;;;;;;44.75;26.00;;;;;;;2.99;100.00;102311.81;5094728;28;20391;-70
2022/01/27 05:02:08;;;;;;;41.00;24.00;;;;;;;2.99;100.00;102298.75;5095017;28;20020;-76
2022/01/27 05:04:40;;;;;;;41.85;24.38;;;;;;;2.93;100.00;102293.16;5093042;28;20044;-76
2022/01/27 05:07:05;;;;;;;44.83;25.40;;;;;;;2.95;100.00;102281.06;5094467;28;20020;-76
2022/01/27 05:09:30;;;;;;;42.45;25.00;;;;;;;3.06;100.00;102300.91;5094908;28;20028;-76
2022/01/27 05:12:07;;;;;;;42.88;25.35;;;;;;;3.05;100.00;102301.69;5094563;28;20020;-72
2022/01/27 05:14:32;;;;;;;43.55;25.83;;;;;;;3.06;100.00;102294.75;5094391;28;20043;-71
2022/01/27 05:16:58;;;;;;;40.58;23.30;;;;;;;3.04;100.00;102289.44;5094413;28;20012;-72
2022/01/27 05:19:23;;;;;;;44.13;24.92;;;;;;;3.01;100.00;102290.97;5094495;28;20035;-72
2022/01/27 05:21:49;;;;;;;42.63;25.30;;;;;;;2.94;100.00;102287.09;5094062;28;20024;-74
2022/01/27 05:24:14;;;;;;;45.85;25.38;;;;;;;2.99;100.00;102280.44;5094375;28;20067;-74
2022/01/27 05:26:40;;;;;;;43.38;26.15;;;;;;;3.02;100.00;102278.00;5127219;27;20103;-71
2022/01/27 05:29:08;;;;;;;42.58;24.73;;;;;;;3.11;100.00;102286.38;5094130;28;20041;-74
2022/01/27 05:31:35;;;;;;;40.38;23.45;;;;;;;3.17;100.00;102267.53;5094525;28;20464;-75
2022/01/27 05:34:00;;;;;;;42.03;25.67;;;;;;;3.17;100.00;102254.47;5093920;28;20028;-75
2022/01/27 05:36:26;;;;;;;41.80;23.08;;;;;;;3.17;100.00;102262.31;5094004;28;20032;-75
2022/01/27 05:38:51;;;;;;;42.58;22.38;;;;;;;3.19;100.00;102275.47;5093266;28;20024;-73
2022/01/27 05:41:16;;;;;;;43.67;23.83;;;;;;;3.26;100.00;102264.53;5094009;28;20038;-70
2022/01/27 05:43:43;;;;;;;42.80;24.15;;;;;;;3.21;100.00;102260.78;5093800;28;20024;-71
2022/01/27 05:46:08;;;;;;;42.65;24.02;;;;;;;3.27;100.00;102266.34;5094016;28;20074;-74
2022/01/27 05:48:34;;;;;;;41.58;24.17;;;;;;;3.30;100.00;102276.97;5094007;28;20455;-71
2022/01/27 05:51:00;;;;;;;42.92;24.65;;;;;;;3.32;100.00;102251.84;5093558;28;20024;-74
2022/01/27 05:53:25;;;;;;;44.08;25.48;;;;;;;3.33;100.00;102256.22;5093840;28;20027;-73
2022/01/27 05:55:50;;;;;;;42.10;24.42;;;;;;;3.34;100.00;102259.78;5093525;28;20103;-75
2022/01/27 05:58:16;;;;;;;41.70;21.67;;;;;;;3.37;100.00;102257.31;5093735;28;20124;-70
2022/01/27 06:00:41;;;;;;;41.30;25.25;;;;;;;3.37;100.00;102258.22;5093747;28;20552;-74
2022/01/27 06:03:07;;;;;;;42.78;23.13;;;;;;;3.41;100.00;102262.81;5093632;28;20036;-74
2022/01/27 06:05:33;;;;;;;41.63;22.88;;;;;;;3.45;100.00;102251.72;5093075;28;20493;-72
2022/01/27 06:07:58;;;;;;;42.83;23.52;;;;;;;3.52;100.00;102249.44;5093413;28;20024;-74
2022/01/27 06:10:24;;;;;;;41.45;22.98;;;;;;;3.52;100.00;102267.72;5093430;28;20039;-74
2022/01/27 06:12:51;;;;;;;42.28;24.73;;;;;;;3.49;100.00;102251.06;5093417;28;20024;-74
2022/01/27 06:15:18;;;;;;;42.28;24.90;;;;;;;3.47;100.00;102255.28;5093144;28;20024;-74
2022/01/27 06:17:43;;;;;;;42.67;25.20;;;;;;;3.41;100.00;102241.00;5093193;28;20028;-75
2022/01/27 06:20:09;;;;;;;42.55;24.90;;;;;;;3.41;100.00;102249.72;5093442;28;20025;-73
2022/01/27 06:22:35;;;;;;;44.55;25.30;;;;;;;3.34;100.00;102242.34;5093075;28;20035;-74
2022/01/27 06:25:01;;;;;;;43.65;24.67;;;;;;;3.30;100.00;102253.44;5093309;28;20020;-71
2022/01/27 06:27:26;;;;;;;46.33;26.95;;;;;;;3.30;100.00;102235.16;5089826;28;20029;-74
2022/01/27 06:29:52;;;;;;;45.30;26.10;;;;;;;3.27;100.00;102240.22;5089090;28;20038;-74
2022/01/27 06:32:17;;;;;;;45.90;25.00;;;;;;;3.30;100.00;102241.28;5090548;28;20028;-66
2022/01/27 06:34:42;;;;;;;46.42;25.98;;;;;;;3.32;100.00;102241.38;5089466;28;20030;-68
2022/01/27 06:37:08;;;;;;;46.58;26.27;;;;;;;3.34;100.00;102244.97;5091759;28;20157;-67
2022/01/27 06:39:33;;;;;;;47.58;26.63;;;;;;;3.39;100.00;102230.44;5091357;28;20501;-67
2022/01/27 06:42:01;;;;;;;48.50;28.33;;;;;;;3.30;100.00;102235.16;5091523;28;20032;-67
2022/01/27 06:44:26;;;;;;;45.35;25.92;;;;;;;3.30;100.00;102224.69;5091517;28;20024;-69
2022/01/27 06:46:51;;;;;;;48.03;26.67;;;;;;;3.35;100.00;102217.09;5087219;28;20043;-67
2022/01/27 06:49:17;;;;;;;47.15;27.55;;;;;;;3.44;100.00;102218.53;5089001;28;20031;-77
2022/01/27 06:51:44;;;;;;;47.95;27.38;;;;;;;3.50;100.00;102215.34;5090928;28;20107;-76
2022/01/27 06:54:10;;;;;;;46.30;24.50;;;;;;;3.54;100.00;102203.31;5090937;28;20028;-74
2022/01/27 06:56:35;;;;;;;45.47;25.20;;;;;;;3.59;100.00;102223.69;5091347;28;20034;-74
2022/01/27 06:59:00;;;;;;;47.67;27.33;;;;;;;3.60;100.00;102229.84;5090934;28;20147;-73
2022/01/27 07:01:26;;;;;;;45.33;26.35;;;;;;;3.64;100.00;102221.31;5091032;28;20051;-76
2022/01/27 07:03:51;;;;;;;44.30;25.38;;;;;;;3.62;100.00;102218.63;5090113;28;20123;-76
2022/01/27 07:06:17;;;;;;;46.05;26.30;;;;;;;3.65;100.00;102215.28;5089569;28;20406;-76
2022/01/27 07:08:43;;;;;;;45.28;26.27;;;;;;;3.67;100.00;102218.91;5091177;28;20038;-77
2022/01/27 07:11:08;;;;;;;45.67;26.35;;;;;;;3.71;100.00;102219.94;5090251;28;20020;-76
2022/01/27 07:13:33;;;;;;;45.60;25.52;;;;;;;3.73;100.00;102216.63;5091437;28;20436;-82
2022/01/27 07:15:59;;;;;;;45.53;24.95;;;;;;;3.76;100.00;102215.88;5091242;28;20111;-78
2022/01/27 07:18:24;;;;;;;47.95;28.02;;;;;;;3.71;100.00;102227.81;5087057;28;20439;-68
2022/01/27 07:20:50;;;;;;;44.53;24.35;;;;;;;3.78;100.00;102215.13;5090627;28;20020;-67
2022/01/27 07:23:15;;;;;;;46.38;26.88;;;;;;;3.75;100.00;102235.88;5090647;28;20024;-69
2022/01/27 07:25:41;;;;;;;46.53;25.73;;;;;;;3.81;100.00;102230.97;5091192;28;20021;-68
2022/01/27 07:28:07;;;;;;;45.35;26.05;;;;;;;3.86;100.00;102235.56;5090897;28;20024;-68
2022/01/27 07:30:32;;;;;;;48.53;29.08;;;;;;;3.84;100.00;102241.66;5091210;28;20032;-67
2022/01/27 07:32:57;;;;;;;46.67;26.65;;;;;;;3.86;100.00;102230.34;5090662;28;20024;-67
2022/01/27 07:35:23;;;;;;;45.53;26.45;;;;;;;3.86;100.00;102228.63;5089972;28;20028;-69
2022/01/27 07:37:48;;;;;;;48.13;27.80;;;;;;;3.87;100.00;102232.16;5090795;28;20431;-68
2022/01/27 07:40:14;;;;;;;46.65;27.38;;;;;;;3.88;100.00;102240.06;5090357;28;20024;-70
2022/01/27 07:42:39;;;;;;;48.00;27.35;;;;;;;3.90;100.00;102232.31;5088279;28;20055;-68
2022/01/27 07:45:05;;;;;;;47.72;27.42;;;;;;;3.87;100.00;102224.28;5087462;28;20036;-68
2022/01/27 07:47:31;;;;;;;49.10;28.08;;;;;;;3.88;100.00;102232.22;5090045;28;20024;-68
2022/01/27 07:49:56;;;;;;;48.67;26.85;;;;;;;3.84;100.00;102228.56;5091208;28;20031;-68
2022/01/27 07:52:22;;;;;;;52.67;29.15;;;;;;;3.79;100.00;102222.16;5087041;28;20047;-68
2022/01/27 07:54:47;;;;;;;54.80;30.10;;;;;;;3.67;100.00;102231.97;5089507;28;20036;-67
2022/01/27 07:57:13;;;;;;;54.60;30.73;;;;;;;3.60;100.00;102241.19;5090730;28;20053;-68
2022/01/27 07:59:39;;;;;;;54.85;31.73;;;;;;;3.53;100.00;102233.81;5089968;28;20378;-69
2022/01/27 08:02:04;;;;;;;61.03;34.65;;;;;;;3.49;100.00;102240.63;5092611;28;20103;-68
2022/01/27 08:04:29;;;;;;;64.88;33.47;;;;;;;3.47;100.00;102251.78;5094328;28;20140;-69
2022/01/27 08:06:56;;;;;;;69.40;36.97;;;;;;;3.46;100.00;102242.13;5094420;28;20489;-69
2022/01/27 08:09:22;;;;;;;64.82;33.95;;;;;;;3.43;100.00;102242.88;5093033;28;20410;-69
2022/01/27 08:11:47;;;;;;;74.70;38.75;;;;;;;3.42;100.00;102251.53;5092272;28;20023;-72
2022/01/27 08:14:13;;;;;;;78.20;38.72;;;;;;;3.42;100.00;102242.78;5091372;28;20020;-73
2022/01/27 08:16:38;;;;;;;74.00;38.90;;;;;;;3.43;100.00;102248.09;5093254;28;20027;-73
2022/01/27 08:19:03;;;;;;;76.63;39.00;;;;;;;3.40;100.00;102244.41;5094446;28;20117;-73
2022/01/27 08:21:29;;;;;;;87.40;42.53;;;;;;;3.41;100.00;102241.88;5088226;28;20035;-70
2022/01/27 08:23:56;;;;;;;86.07;41.92;;;;;;;3.44;100.00;102244.66;5091838;28;20395;-68
2022/01/27 08:26:31;;;;;;;87.95;42.53;;;;;;;3.42;100.00;102228.00;5093813;28;20085;-68
2022/01/27 08:29:11;;;;;;;89.10;42.00;;;;;;;3.44;100.00;102231.59;5092854;28;20081;-69
2022/01/27 08:31:56;;;;;;;85.85;43.17;;;;;;;3.44;100.00;102239.44;5093006;28;20024;-69
2022/01/27 08:34:41;;;;;;;95.28;41.70;;;;;;;3.40;100.00;102221.78;5091921;28;20036;-69
2022/01/27 08:37:13;;;;;;;91.55;42.38;;;;;;;3.39;100.00;102233.03;5085204;28;20571;-70
2022/01/27 08:39:39;;;;;;;101.03;45.17;;;;;;;3.41;100.00;102227.94;5092168;28;20386;-78
2022/01/27 08:42:06;;;;;;;97.22;44.35;;;;;;;3.43;100.00;102234.13;5089758;28;20101;-73
2022/01/27 08:44:32;;;;;;;101.65;46.60;;;;;;;3.43;100.00;102227.19;5088496;28;20054;-73
2022/01/27 08:46:58;;;;;;;100.65;45.83;;;;;;;3.45;100.00;102222.94;5093319;28;20470;-75
2022/01/27 08:49:26;;;;;;;105.60;48.47;;;;;;;3.47;100.00;102223.91;5091298;28;20097;-75
2022/01/27 08:51:52;;;;;;;98.38;44.63;;;;;;;3.49;100.00;102243.22;5091956;28;20028;-76
2022/01/27 08:54:18;;;;;;;94.55;44.17;;;;;;;3.53;100.00;102228.59;5094875;28;20035;-76
2022/01/27 08:56:44;;;;;;;102.93;48.53;;;;;;;3.56;100.00;102230.47;5090663;28;20024;-73
2022/01/27 08:59:09;;;;;;;102.70;47.33;;;;;;;3.61;100.00;102231.63;5094784;28;20023;-75
2022/01/27 09:01:35;;;;;;;99.72;46.50;;;;;;;3.61;100.00;102226.38;5094580;28;20035;-74
2022/01/27 09:04:01;;;;;;;106.18;48.70;;;;;;;3.65;100.00;102230.97;5094745;28;20099;-78
2022/01/27 09:06:29;;;;;;;110.22;50.50;;;;;;;3.67;100.00;102232.88;5094307;28;20044;-79
2022/01/27 09:08:55;;;;;;;115.43;51.20;;;;;;;3.70;100.00;102221.69;5094742;28;20020;-76
2022/01/27 09:11:21;;;;;;;108.07;50.35;;;;;;;3.76;100.00;102221.13;5094520;28;20438;-79
2022/01/27 09:13:46;;;;;;;110.40;49.97;;;;;;;3.79;100.00;102232.63;5091824;28;20255;-71
2022/01/27 09:16:11;;;;;;;106.05;48.97;;;;;;;3.83;100.00;102218.00;5092947;28;20020;-69
2022/01/27 09:18:37;;;;;;;98.07;46.85;;;;;;;3.88;100.00;102220.88;5092849;28;20024;-72
2022/01/27 09:21:08;;;;;;;102.47;51.13;;;;;;;3.89;100.00;102222.66;5093157;28;20031;-79
2022/01/27 09:23:34;;;;;;;106.93;50.65;;;;;;;3.92;100.00;102217.59;5090153;28;20509;-79
2022/01/27 09:26:07;;;;;;;104.13;50.47;;;;;;;3.94;100.00;102211.63;5092712;28;20024;-78
2022/01/27 09:28:32;;;;;;;101.53;47.67;;;;;;;3.96;100.00;102204.75;5091736;28;20028;-71
2022/01/27 09:30:58;;;;;;;107.40;51.75;;;;;;;3.99;100.00;102217.09;5090574;28;20020;-76
2022/01/27 09:33:23;;;;;;;116.15;55.50;;;;;;;3.99;100.00;102217.09;5091857;28;20548;-76
2022/01/27 09:35:49;;;;;;;104.43;52.50;;;;;;;4.01;100.00;102223.31;5092454;28;20421;-78
2022/01/27 09:38:16;;;;;;;103.95;51.65;;;;;;;4.07;100.00;102214.91;5091994;28;20389;-78
2022/01/27 09:40:43;;;;;;;105.18;51.20;;;;;;;4.05;100.00;102222.66;5092778;28;20024;-76
2022/01/27 09:43:08;;;;;;;105.13;53.50;;;;;;;4.08;100.00;102220.22;5089607;28;20059;-76
2022/01/27 09:45:37;;;;;;;99.95;47.47;;;;;;;4.09;100.00;102214.16;5087749;28;20055;-77
2022/01/27 09:48:12;;;;;;;95.30;48.28;;;;;;;4.13;100.00;102213.47;5092199;28;20035;-78
2022/01/27 09:53:13;;;;;;;101.15;51.85;;;;;;;4.14;100.00;102225.75;5090660;28;20040;-76
2022/01/27 09:55:39;;;;;;;98.90;51.42;;;;;;;4.16;100.00;102237.19;5092431;28;20031;-74
2022/01/27 09:58:06;;;;;;;92.00;46.95;;;;;;;4.18;100.00;102234.69;5091732;28;20028;-77
2022/01/27 10:00:31;;;;;;;102.10;51.88;;;;;;;4.18;100.00;102232.97;5091692;28;20075;-75
2022/01/27 10:03:02;;;;;;;88.53;47.95;;;;;;;4.23;100.00;102234.94;5092262;28;20048;-72
2022/01/27 10:05:28;;;;;;;92.80;50.38;;;;;;;4.22;100.00;102234.00;5092182;28;20036;-74
2022/01/27 10:08:11;;;;;;;97.82;52.92;;;;;;;4.25;100.00;102248.97;5091315;28;20033;-74
2022/01/27 10:10:40;;;;;;;94.85;49.03;;;;;;;4.27;100.00;102235.16;5091917;28;20099;-76
2022/01/27 10:13:07;;;;;;;98.65;49.03;;;;;;;4.27;100.00;102242.13;5091727;28;20069;-78
2022/01/27 10:15:37;;;;;;;98.78;50.55;;;;;;;4.31;100.00;102233.59;5090779;28;20115;-77
2022/01/27 10:18:18;;;;;;;88.32;50.20;;;;;;;4.36;100.00;102227.78;5090539;28;20024;-74
2022/01/27 10:21:03;;;;;;;85.55;49.35;;;;;;;4.36;100.00;102222.53;5091582;28;20054;-73
2022/01/27 10:23:33;;;;;;;83.95;48.17;;;;;;;4.42;100.00;102237.66;5090115;28;20074;-77
2022/01/27 10:26:29;;;;;;;81.75;45.63;;;;;;;4.46;100.00;102237.00;5086764;28;20028;-78
2022/01/27 10:29:05;;;;;;;86.05;47.42;;;;;;;4.47;100.00;102222.19;5088337;28;20082;-75
2022/01/27 10:31:30;;;;;;;84.78;47.13;;;;;;;4.46;100.00;102221.31;5091257;28;20028;-78
2022/01/27 10:34:01;;;;;;;78.53;46.08;;;;;;;4.48;100.00;102237.97;5086234;28;20039;-78
2022/01/27 10:36:32;;;;;;;84.70;45.13;;;;;;;4.46;100.00;102229.16;5089689;28;20489;-79
2022/01/27 10:38:59;;;;;;;85.72;45.78;;;;;;;4.48;100.00;102224.88;5088546;28;20548;-75
2022/01/27 10:41:30;;;;;;;86.38;49.80;;;;;;;4.49;100.00;102229.31;5091021;28;20027;-76
2022/01/27 10:44:13;;;;;;;83.60;46.22;;;;;;;4.56;100.00;102227.00;5091483;28;20027;-77
2022/01/27 10:47:08;;;;;;;82.05;44.17;;;;;;;4.63;100.00;102209.06;5090008;28;20016;-78
2022/01/27 10:49:37;;;;;;;80.75;46.30;;;;;;;4.59;100.00;102227.16;5010218;28;20136;-77
2022/01/27 10:52:03;;;;;;;76.28;47.78;;;;;;;4.59;100.00;102228.06;5006893;28;20475;-77
2022/01/27 10:54:42;;;;;;;73.28;45.83;;;;;;;4.63;100.00;102226.50;5009036;28;20117;-77
2022/01/27 10:57:12;;;;;;;73.90;43.80;;;;;;;4.64;100.00;102228.28;5008937;28;20038;-77
2022/01/27 10:59:38;;;;;;;75.60;44.90;;;;;;;4.71;100.00;102233.03;5007026;28;20652;-76
2022/01/27 11:02:07;;;;;;;76.63;45.70;;;;;;;4.73;100.00;102234.00;5008635;28;20034;-76
2022/01/27 11:04:43;;;;;;;76.35;44.60;;;;;;;4.74;100.00;102234.91;5006485;28;20524;-75
2022/01/27 11:07:11;;;;;;;75.65;43.95;;;;;;;4.79;100.00;102239.56;5007091;28;20057;-74
2022/01/27 11:09:40;;;;;;;81.40;45.05;;;;;;;4.79;100.00;102217.69;5009052;28;20101;-74
2022/01/27 11:12:10;;;;;;;72.68;44.05;;;;;;;4.85;100.00;102215.38;5010251;28;20473;-72
2022/01/27 11:14:36;;;;;;;71.30;46.70;;;;;;;4.89;100.00;102220.84;5010178;28;20038;-72
2022/01/27 11:17:06;;;;;;;77.35;46.30;;;;;;;4.92;100.00;102225.31;5010704;28;20030;-72
2022/01/27 11:22:42;;;;;;;73.22;45.22;;;;;;;5.02;100.00;102216.19;5010457;28;20122;-73
2022/01/27 11:27:36;;;;;;;74.25;45.53;;;;;;;5.09;100.00;102204.31;5088828;28;20024;-73
2022/01/27 11:30:29;;;;;;;72.45;44.72;;;;;;;5.18;100.00;102192.50;5092742;28;20359;-70
2022/01/27 11:33:02;;;;;;;72.78;45.08;;;;;;;5.27;100.00;102185.91;5090762;28;20024;-72
2022/01/27 11:35:27;;;;;;;76.05;43.55;;;;;;;5.35;100.00;102184.56;5091101;28;20035;-72
2022/01/27 11:37:55;;;;;;;69.75;44.40;;;;;;;5.38;100.00;102184.72;5094985;28;20028;-72
2022/01/27 11:40:33;;;;;;;66.40;41.70;;;;;;;5.38;100.00;102179.47;5096346;28;20024;-72
2022/01/27 11:42:58;;;;;;;70.10;41.03;;;;;;;5.39;100.00;102181.28;5096328;28;20028;-71
2022/01/27 11:45:23;;;;;;;72.03;42.95;;;;;;;5.43;100.00;102171.81;5096574;28;20107;-72
2022/01/27 11:48:24;;;;;;;74.55;42.83;;;;;;;5.43;100.00;102170.06;5096103;28;20378;-72
2022/01/27 11:50:55;;;;;;;71.63;43.03;;;;;;;5.44;100.00;102171.88;5047368;28;20033;-72
2022/01/27 11:53:33;;;;;;;71.18;42.15;;;;;;;5.48;100.00;102173.81;5053404;28;20037;-72
2022/01/27 11:56:15;;;;;;;69.70;42.20;;;;;;;5.48;100.00;102172.94;5053541;28;20041;-72